Accueil
METAR-TAF:

METAR-TAF

Aéroports :

Bergerac, France

Aéroport de Bergerac-Dordogne-Périgord

latitude: 44-49N, longitude: 000-31E, altitude: 51 m

Observation

Le bulletin a été fait il y a 30 minutes, à 00:00 UTC
Vent calme
Température -3°C
Humidité 93%
Pression 1009 hPa
Visibilité: 5000 m
brume

METAR: LFBE 240000Z AUTO 00000KT 5000 BR NSC M03/M04 Q1009

Heure: 01:30 (00:30 UTC)

Prévision

Le bulletin a été fait il y a 7 heures et 30 minutes, à 17:00 UTC
Prévision valable du 23 à 18 UTC au 24 à 18 UTC
Vent 5 kt de nord
Visibilité 10 km ou plus
pas de nuages en-dessous de 1500 mètres et pas de cumulonimbus.

TAF: LFBE 231700Z 2318/2418 36005KT CAVOK

Observations et prévisions météorologiques de plus de 4000 aéroports (messages METAR et TAF).

Les stations disponibles sont représentées par des disques jaunes et rouges sur la carte.

Passer la souris dessus pour voir le nom de la station.

Cliquer dessus pour voir les observations et prévisions météorologiques.

Pour changer de carte: cliquez sur les boutons verts avec une croix noire pour zoomer, sur le bouton vert avec un tiret pour effectuer un zoom arrière, ou sur les flèches vertes pour les cartes adjacentes.


METAR-TAF: